createdAt,value
2019-02-07T00:00:15.506Z,2.00
2019-02-07T00:02:43.977Z,2.00
2019-02-07T00:05:12.512Z,2.00
2019-02-07T00:07:41.065Z,2.00
2019-02-07T00:10:13.174Z,2.10
2019-02-07T00:12:41.649Z,2.10
2019-02-07T00:15:11.269Z,2.00
2019-02-07T00:17:39.805Z,2.10
2019-02-07T00:20:17.066Z,2.10
2019-02-07T00:22:45.617Z,2.10
2019-02-07T00:25:14.138Z,2.10
2019-02-07T00:27:42.752Z,2.10
2019-02-07T00:30:20.051Z,2.00
2019-02-07T00:32:48.659Z,2.10
2019-02-07T00:35:17.141Z,2.10
2019-02-07T00:37:45.669Z,2.00
2019-02-07T00:40:18.701Z,2.00
2019-02-07T00:42:47.598Z,1.90
2019-02-07T00:45:18.852Z,1.90
2019-02-07T00:47:47.763Z,1.90
2019-02-07T00:50:17.992Z,1.90
2019-02-07T00:52:46.902Z,1.90
2019-02-07T00:55:16.896Z,1.80
2019-02-07T00:57:45.601Z,1.80
2019-02-07T01:00:20.407Z,1.80
2019-02-07T01:02:48.997Z,1.80
2019-02-07T01:05:17.810Z,1.80
2019-02-07T01:07:46.279Z,1.70
2019-02-07T01:10:29.229Z,1.70
2019-02-07T01:12:58.002Z,1.70
2019-02-07T01:15:28.578Z,1.60
2019-02-07T01:17:57.281Z,1.60
2019-02-07T01:20:26.105Z,1.60
2019-02-07T01:22:55.106Z,1.60
2019-02-07T01:25:24.749Z,1.60
2019-02-07T01:27:53.378Z,1.60
2019-02-07T01:30:29.460Z,1.60
2019-02-07T01:32:58.159Z,1.50
2019-02-07T01:35:26.705Z,1.50
2019-02-07T01:37:55.607Z,1.50
2019-02-07T01:40:24.221Z,1.50
2019-02-07T01:42:55.614Z,1.50
2019-02-07T01:45:24.777Z,1.50
2019-02-07T01:47:53.387Z,1.40
2019-02-07T01:50:23.678Z,1.40
2019-02-07T01:52:52.608Z,1.50
2019-02-07T01:55:21.735Z,1.50
2019-02-07T01:57:50.350Z,1.50
2019-02-07T02:00:19.875Z,1.40
2019-02-07T02:02:48.776Z,1.40
2019-02-07T02:05:19.657Z,1.40
2019-02-07T02:07:50.135Z,1.40
2019-02-07T02:10:21.017Z,1.40
2019-02-07T02:12:49.754Z,1.40
2019-02-07T02:15:24.610Z,1.40
2019-02-07T02:17:50.900Z,1.40
2019-02-07T02:20:22.020Z,1.40
2019-02-07T02:22:50.826Z,1.40
2019-02-07T02:25:19.580Z,1.40
2019-02-07T02:27:48.238Z,1.40
2019-02-07T02:30:19.718Z,1.40
2019-02-07T02:32:48.251Z,1.40
2019-02-07T02:35:16.902Z,1.40
2019-02-07T02:37:45.445Z,1.40
2019-02-07T02:40:15.012Z,1.40
2019-02-07T02:42:43.478Z,1.40
2019-02-07T02:45:15.015Z,1.40
2019-02-07T02:47:43.547Z,1.40
2019-02-07T02:50:14.873Z,1.50
2019-02-07T02:52:43.407Z,1.50
2019-02-07T02:55:13.861Z,1.50
2019-02-07T02:57:42.389Z,1.50
2019-02-07T03:00:17.242Z,1.50
2019-02-07T03:03:06.019Z,1.50
2019-02-07T03:05:36.212Z,1.50
2019-02-07T03:08:21.275Z,1.50
2019-02-07T03:11:09.295Z,1.50
2019-02-07T03:13:55.730Z,1.50
2019-02-07T03:16:31.536Z,1.60
2019-02-07T03:19:07.552Z,1.50
2019-02-07T03:21:37.677Z,1.50
2019-02-07T03:24:24.609Z,1.50
2019-02-07T03:26:54.724Z,1.50
2019-02-07T03:29:36.503Z,1.50
2019-02-07T03:32:10.258Z,1.50
2019-02-07T03:34:40.355Z,1.60
2019-02-07T03:37:13.212Z,1.60
2019-02-07T03:39:43.504Z,1.60
2019-02-07T03:42:25.805Z,1.70
2019-02-07T03:45:04.947Z,1.70
2019-02-07T03:47:35.120Z,1.70
2019-02-07T03:50:17.601Z,1.70
2019-02-07T03:53:03.937Z,1.70
2019-02-07T03:55:37.034Z,1.70
2019-02-07T03:58:25.587Z,1.70
2019-02-07T04:01:01.638Z,1.70
2019-02-07T04:03:40.568Z,1.60
2019-02-07T04:06:10.679Z,1.60
2019-02-07T04:08:46.600Z,1.60
2019-02-07T04:11:22.412Z,1.60
2019-02-07T04:13:52.504Z,1.70
2019-02-07T04:16:23.065Z,1.70
2019-02-07T04:19:01.950Z,1.80
2019-02-07T04:21:41.148Z,1.80
2019-02-07T04:24:18.194Z,1.80
2019-02-07T04:26:57.254Z,1.80
2019-02-07T04:29:27.456Z,1.80
2019-02-07T04:32:00.248Z,1.90
2019-02-07T04:34:42.398Z,1.90
2019-02-07T04:37:18.536Z,2.00
2019-02-07T04:40:04.882Z,2.10
2019-02-07T04:42:40.813Z,2.10
2019-02-07T04:45:11.163Z,2.10
2019-02-07T04:47:41.270Z,2.20
2019-02-07T04:50:18.017Z,2.20
2019-02-07T04:52:51.151Z,2.20
2019-02-07T04:55:21.667Z,2.20
2019-02-07T04:57:54.479Z,2.30
2019-02-07T05:00:40.813Z,2.30
2019-02-07T05:03:23.181Z,2.30
2019-02-07T05:05:55.896Z,2.30
2019-02-07T05:08:29.071Z,2.30
2019-02-07T05:11:02.315Z,2.30
2019-02-07T05:13:32.426Z,2.30
2019-02-07T05:16:08.826Z,2.30
2019-02-07T05:18:38.927Z,2.30
2019-02-07T05:21:12.016Z,2.40
2019-02-07T05:23:45.033Z,2.40
2019-02-07T05:26:15.298Z,2.50
2019-02-07T05:28:48.898Z,2.60
2019-02-07T05:31:19.218Z,2.60
2019-02-07T05:33:52.380Z,2.70
2019-02-07T05:36:28.166Z,2.70
2019-02-07T05:39:04.171Z,2.70
2019-02-07T05:41:46.465Z,2.70
2019-02-07T05:44:19.272Z,2.70
2019-02-07T05:46:55.388Z,2.60
2019-02-07T05:49:43.947Z,2.60
2019-02-07T05:52:30.420Z,2.60
2019-02-07T05:55:06.319Z,2.60
2019-02-07T05:57:51.522Z,2.70
2019-02-07T06:00:21.651Z,2.70
2019-02-07T06:02:51.932Z,2.70
2019-02-07T06:05:24.900Z,2.80
2019-02-07T06:08:00.898Z,2.80
2019-02-07T06:10:33.801Z,2.80
2019-02-07T06:13:12.996Z,2.80
2019-02-07T06:16:01.226Z,2.70
2019-02-07T06:18:49.482Z,2.80
2019-02-07T06:21:25.221Z,2.80
2019-02-07T06:24:02.011Z,2.90
2019-02-07T06:26:32.221Z,2.90
2019-02-07T06:29:11.317Z,2.90
2019-02-07T06:31:44.094Z,2.90
2019-02-07T06:34:29.563Z,3.00
2019-02-07T06:36:59.705Z,3.00
2019-02-07T06:39:29.866Z,3.00
2019-02-07T06:42:02.962Z,3.00
2019-02-07T06:44:42.517Z,3.00
2019-02-07T06:47:21.657Z,3.10
2019-02-07T06:49:54.479Z,3.10
2019-02-07T06:52:24.617Z,3.20
2019-02-07T06:54:55.001Z,3.20
2019-02-07T06:57:41.399Z,3.20
2019-02-07T07:00:17.576Z,3.30
2019-02-07T07:02:47.708Z,3.30
2019-02-07T07:05:20.951Z,3.40
2019-02-07T07:08:03.179Z,3.40
2019-02-07T07:10:36.927Z,3.50
2019-02-07T07:13:13.587Z,3.50
2019-02-07T07:15:43.754Z,3.60
2019-02-07T07:18:19.548Z,3.60
2019-02-07T07:21:05.122Z,3.70
2019-02-07T07:23:38.124Z,3.80
2019-02-07T07:26:11.520Z,3.90
2019-02-07T07:28:53.766Z,4.00
2019-02-07T07:31:23.882Z,4.10
2019-02-07T07:33:53.983Z,4.10
2019-02-07T07:36:29.942Z,4.20
2019-02-07T07:39:11.946Z,4.20
2019-02-07T07:41:42.064Z,4.20
2019-02-07T07:44:18.214Z,4.20
2019-02-07T07:46:56.853Z,4.20
2019-02-07T07:49:32.862Z,4.30
2019-02-07T07:52:12.008Z,4.30
2019-02-07T07:54:53.945Z,4.30
2019-02-07T07:57:40.266Z,4.30
2019-02-07T08:00:30.728Z,4.30
2019-02-07T08:03:06.867Z,4.40
2019-02-07T08:05:45.711Z,4.40
2019-02-07T08:08:16.109Z,4.40
2019-02-07T08:10:46.262Z,4.40
2019-02-07T08:13:33.182Z,4.40
2019-02-07T08:16:21.418Z,4.50
2019-02-07T08:19:09.621Z,4.50
2019-02-07T08:21:39.729Z,4.50
2019-02-07T08:24:09.835Z,4.60
2019-02-07T08:26:39.949Z,4.60
2019-02-07T08:29:26.419Z,4.70
2019-02-07T08:32:05.535Z,4.70
2019-02-07T08:34:35.997Z,4.80
2019-02-07T08:37:15.065Z,4.90
2019-02-07T08:40:00.396Z,5.00
2019-02-07T08:42:33.771Z,5.20
2019-02-07T08:45:20.613Z,5.30
2019-02-07T08:47:58.598Z,5.40
2019-02-07T08:50:43.581Z,5.40
2019-02-07T08:53:30.017Z,5.30
2019-02-07T08:56:03.207Z,5.30
2019-02-07T08:58:33.359Z,5.20
2019-02-07T09:01:11.432Z,5.20
2019-02-07T09:03:41.275Z,5.10
2019-02-07T09:06:17.163Z,5.10
2019-02-07T09:08:56.274Z,5.00
2019-02-07T09:11:32.445Z,5.00
2019-02-07T09:14:08.204Z,4.90
2019-02-07T09:16:41.357Z,4.90
2019-02-07T09:19:14.582Z,5.00
2019-02-07T09:22:02.491Z,5.00
2019-02-07T09:24:47.359Z,5.10
2019-02-07T09:27:26.700Z,5.20
2019-02-07T09:30:09.245Z,5.30
2019-02-07T09:32:51.644Z,5.40
2019-02-07T09:35:30.882Z,5.60
2019-02-07T09:38:16.080Z,5.60
2019-02-07T09:40:48.863Z,5.70
2019-02-07T09:43:27.828Z,5.90
2019-02-07T09:46:14.430Z,5.90
2019-02-07T09:48:44.530Z,6.10
2019-02-07T09:51:14.652Z,6.20
2019-02-07T09:53:47.704Z,6.20
2019-02-07T09:56:29.610Z,6.30
2019-02-07T09:59:03.327Z,6.40
2019-02-07T10:01:33.714Z,6.50
2019-02-07T10:04:19.416Z,6.50
2019-02-07T10:06:55.505Z,6.40
2019-02-07T10:09:28.866Z,6.40
2019-02-07T10:12:15.416Z,6.30
2019-02-07T10:14:57.916Z,6.40
2019-02-07T10:17:28.026Z,6.40
2019-02-07T10:20:10.214Z,6.40
2019-02-07T10:22:45.944Z,6.30
2019-02-07T10:25:25.126Z,6.20
2019-02-07T10:27:55.332Z,6.20
2019-02-07T10:30:31.269Z,6.10
2019-02-07T10:33:17.967Z,6.10
2019-02-07T10:35:48.084Z,6.10
2019-02-07T10:38:23.911Z,6.10
2019-02-07T10:41:06.438Z,6.00
2019-02-07T10:43:39.327Z,6.10
2019-02-07T10:46:27.790Z,6.10
2019-02-07T10:49:03.783Z,6.10
2019-02-07T10:51:48.725Z,6.20
2019-02-07T10:54:18.907Z,6.20
2019-02-07T10:56:49.054Z,6.20
2019-02-07T10:59:19.225Z,6.10
2019-02-07T11:02:07.894Z,6.10
2019-02-07T11:04:46.894Z,6.00
2019-02-07T11:07:21.791Z,6.00
2019-02-07T11:10:00.909Z,6.10
2019-02-07T11:12:31.109Z,6.30
2019-02-07T11:15:04.315Z,6.50
2019-02-07T11:17:40.777Z,6.50
2019-02-07T11:20:30.271Z,6.50
2019-02-07T11:23:09.631Z,6.50
2019-02-07T11:25:48.568Z,6.50
2019-02-07T11:28:24.663Z,6.50
2019-02-07T11:30:54.770Z,6.50
2019-02-07T11:33:30.339Z,6.60
2019-02-07T11:36:03.145Z,6.70
2019-02-07T11:38:45.797Z,6.80
2019-02-07T11:41:15.912Z,7.00
2019-02-07T11:43:49.037Z,7.10
2019-02-07T11:46:21.753Z,7.10
2019-02-07T11:49:07.463Z,7.10
2019-02-07T11:51:50.204Z,7.10
2019-02-07T11:54:29.518Z,7.00
2019-02-07T11:56:59.635Z,6.90
2019-02-07T11:59:32.231Z,6.80
2019-02-07T12:02:08.782Z,6.60
2019-02-07T12:04:50.706Z,6.50
2019-02-07T12:07:20.966Z,6.50
2019-02-07T12:09:51.667Z,6.70
2019-02-07T12:12:33.566Z,6.90
2019-02-07T12:15:04.248Z,7.00
2019-02-07T12:17:34.379Z,7.10
2019-02-07T12:20:16.846Z,7.20
2019-02-07T12:23:03.021Z,7.30
2019-02-07T12:25:41.818Z,7.30
2019-02-07T12:28:27.200Z,7.30
2019-02-07T12:31:03.519Z,7.30
2019-02-07T12:33:39.557Z,7.30
2019-02-07T12:36:15.131Z,7.20
2019-02-07T12:38:45.235Z,7.10
2019-02-07T12:41:19.050Z,7.10
2019-02-07T12:43:49.180Z,7.10
2019-02-07T12:46:28.140Z,7.10
2019-02-07T12:49:14.584Z,7.10
2019-02-07T12:51:44.755Z,7.10
2019-02-07T12:54:31.687Z,7.00
2019-02-07T12:57:06.125Z,6.90
2019-02-07T12:59:45.841Z,6.80
2019-02-07T13:02:15.953Z,6.70
2019-02-07T13:05:01.119Z,6.60
2019-02-07T13:07:47.777Z,6.50
2019-02-07T13:10:34.950Z,6.40
2019-02-07T13:13:21.175Z,6.30
2019-02-07T13:16:07.782Z,6.20
2019-02-07T13:18:44.189Z,6.10
2019-02-07T13:21:26.929Z,6.00
2019-02-07T13:24:06.237Z,6.00
2019-02-07T13:26:42.489Z,6.10
2019-02-07T13:29:27.776Z,6.30
2019-02-07T13:31:58.064Z,6.40
2019-02-07T13:34:28.214Z,6.40
2019-02-07T13:37:14.703Z,6.40
2019-02-07T13:39:45.374Z,6.40
2019-02-07T13:42:33.854Z,6.40
2019-02-07T13:45:09.533Z,6.50
2019-02-07T13:47:40.096Z,6.60
2019-02-07T13:50:24.474Z,6.70
2019-02-07T13:52:57.331Z,6.70
2019-02-07T13:55:43.836Z,6.60
2019-02-07T13:58:23.041Z,6.50
2019-02-07T14:01:05.459Z,6.40
2019-02-07T14:03:52.246Z,6.30
2019-02-07T14:06:40.352Z,6.10
2019-02-07T14:09:17.292Z,6.10
2019-02-07T14:11:53.923Z,6.00
2019-02-07T14:14:32.911Z,6.00
2019-02-07T14:17:12.048Z,6.00
2019-02-07T14:19:45.094Z,6.00
2019-02-07T14:22:24.572Z,6.00
2019-02-07T14:25:06.771Z,6.00
2019-02-07T14:27:36.952Z,6.00
2019-02-07T14:30:33.720Z,6.00
2019-02-07T14:33:03.894Z,6.00
2019-02-07T14:35:34.029Z,6.00
2019-02-07T14:38:04.150Z,6.00
2019-02-07T14:40:46.120Z,6.00
2019-02-07T14:43:32.593Z,5.90
2019-02-07T14:46:05.428Z,5.90
2019-02-07T14:48:33.889Z,5.90
2019-02-07T14:51:02.353Z,6.00
2019-02-07T14:53:30.836Z,6.00
2019-02-07T14:55:59.308Z,6.10
2019-02-07T14:58:27.880Z,6.20
2019-02-07T15:00:56.435Z,6.30
2019-02-07T15:03:25.403Z,6.20
2019-02-07T15:05:53.937Z,6.20
2019-02-07T15:08:22.439Z,6.20
2019-02-07T15:10:50.919Z,6.20
2019-02-07T15:13:19.388Z,6.20
2019-02-07T15:15:47.865Z,6.20
2019-02-07T15:18:16.573Z,6.20
2019-02-07T15:20:45.171Z,6.20
2019-02-07T15:23:13.719Z,6.10
2019-02-07T15:25:42.261Z,6.10
2019-02-07T15:28:10.833Z,6.10
2019-02-07T15:30:39.305Z,6.10
2019-02-07T15:33:07.801Z,6.20
2019-02-07T15:35:42.145Z,6.20
2019-02-07T15:38:10.167Z,6.30
2019-02-07T15:40:38.707Z,6.20
2019-02-07T15:43:07.415Z,6.20
2019-02-07T15:45:35.893Z,6.20
2019-02-07T15:48:04.614Z,6.20
2019-02-07T15:50:38.235Z,6.10
2019-02-07T15:53:05.426Z,6.10
2019-02-07T15:55:33.910Z,6.00
2019-02-07T15:58:02.456Z,6.00
2019-02-07T16:00:47.981Z,6.00
2019-02-07T16:03:21.324Z,5.90
2019-02-07T16:05:49.786Z,5.80
2019-02-07T16:08:18.266Z,5.80
2019-02-07T16:10:46.752Z,5.80
2019-02-07T16:13:15.221Z,5.80
2019-02-07T16:15:43.769Z,5.80
2019-02-07T16:18:12.478Z,5.80
2019-02-07T16:20:48.644Z,5.80
2019-02-07T16:23:11.160Z,5.90
2019-02-07T16:25:39.989Z,5.80
2019-02-07T16:28:08.535Z,5.80
2019-02-07T16:30:37.460Z,5.80
2019-02-07T16:33:06.943Z,5.70
2019-02-07T16:35:38.148Z,5.60
2019-02-07T16:38:06.210Z,5.50
2019-02-07T16:40:34.739Z,5.30
2019-02-07T16:43:03.240Z,5.20
2019-02-07T16:45:31.850Z,5.10
2019-02-07T16:48:00.778Z,5.00
2019-02-07T16:50:34.490Z,5.00
2019-02-07T16:53:03.049Z,5.00
2019-02-07T16:55:31.771Z,5.00
2019-02-07T16:58:00.263Z,5.00
2019-02-07T17:00:31.815Z,5.00
2019-02-07T17:03:00.643Z,5.00
2019-02-07T17:05:29.191Z,5.10
2019-02-07T17:07:57.761Z,5.10
2019-02-07T17:10:34.853Z,5.10
2019-02-07T17:13:04.245Z,5.20
2019-02-07T17:15:32.945Z,5.20
2019-02-07T17:18:01.489Z,5.20
2019-02-07T17:20:33.077Z,5.20
2019-02-07T17:23:01.793Z,5.20
2019-02-07T17:25:31.717Z,5.20
2019-02-07T17:28:00.306Z,5.20
2019-02-07T17:30:29.573Z,5.20
2019-02-07T17:32:58.495Z,5.10
2019-02-07T17:35:27.189Z,5.00
2019-02-07T17:37:55.703Z,4.90
2019-02-07T17:40:26.483Z,4.80
2019-02-07T17:42:55.097Z,4.80
2019-02-07T17:45:28.717Z,4.70
2019-02-07T17:47:57.439Z,4.70
2019-02-07T17:50:28.413Z,4.60
2019-02-07T17:52:57.196Z,4.60
2019-02-07T17:55:27.269Z,4.60
2019-02-07T17:57:55.744Z,4.60
2019-02-07T18:00:35.198Z,4.60
2019-02-07T18:03:04.256Z,4.70
2019-02-07T18:05:32.958Z,4.70
2019-02-07T18:08:01.518Z,4.70
2019-02-07T18:10:30.174Z,4.70
2019-02-07T18:12:58.722Z,4.70
2019-02-07T18:15:27.696Z,4.70
2019-02-07T18:17:56.176Z,4.70
2019-02-07T18:20:24.752Z,4.70
2019-02-07T18:22:53.536Z,4.70
2019-02-07T18:25:22.070Z,4.60
2019-02-07T18:27:50.576Z,4.60
2019-02-07T18:30:20.585Z,4.60
2019-02-07T18:32:49.117Z,4.60
2019-02-07T18:35:19.910Z,4.60
2019-02-07T18:37:48.556Z,4.60
2019-02-07T18:40:25.898Z,4.60
2019-02-07T18:42:54.459Z,4.50
2019-02-07T18:45:23.451Z,4.50
2019-02-07T18:47:52.305Z,4.40
2019-02-07T18:50:26.529Z,4.40
2019-02-07T18:52:55.073Z,4.40
2019-02-07T18:55:23.703Z,4.50
2019-02-07T18:57:52.195Z,4.40
2019-02-07T19:00:33.109Z,4.40
2019-02-07T19:03:01.665Z,4.30
2019-02-07T19:05:30.617Z,4.30
2019-02-07T19:07:59.187Z,4.20
2019-02-07T19:10:28.981Z,4.20
2019-02-07T19:12:58.009Z,4.20
2019-02-07T19:15:32.323Z,4.10
2019-02-07T19:18:00.891Z,4.10
2019-02-07T19:20:29.431Z,4.10
2019-02-07T19:22:57.920Z,4.10
2019-02-07T19:25:26.449Z,4.00
2019-02-07T19:27:55.320Z,4.00
2019-02-07T19:30:31.881Z,4.00
2019-02-07T19:33:00.511Z,3.90
2019-02-07T19:35:29.345Z,3.90
2019-02-07T19:37:58.045Z,3.80
2019-02-07T19:40:26.586Z,3.80
2019-02-07T19:42:55.509Z,3.70
2019-02-07T19:45:25.611Z,3.70
2019-02-07T19:47:54.233Z,3.70
2019-02-07T19:50:29.255Z,3.70
2019-02-07T19:52:57.997Z,3.70
2019-02-07T19:55:31.503Z,3.70
2019-02-07T19:58:00.558Z,3.70
2019-02-07T20:00:31.028Z,3.60
2019-02-07T20:02:59.749Z,3.70
2019-02-07T20:05:28.456Z,3.70
2019-02-07T20:07:57.014Z,3.70
2019-02-07T20:10:27.998Z,3.60
2019-02-07T20:12:57.289Z,3.70
2019-02-07T20:15:29.006Z,3.70
2019-02-07T20:17:59.726Z,3.70
2019-02-07T20:20:27.900Z,3.70
2019-02-07T20:22:56.528Z,3.70
2019-02-07T20:25:25.174Z,3.60
2019-02-07T20:27:53.816Z,3.60
2019-02-07T20:30:34.282Z,3.60
2019-02-07T20:33:02.845Z,3.60
2019-02-07T20:35:31.394Z,3.60
2019-02-07T20:38:00.020Z,3.70
2019-02-07T20:40:29.700Z,3.70
2019-02-07T20:42:58.324Z,3.70
2019-02-07T20:45:27.040Z,3.70
2019-02-07T20:47:55.676Z,3.70
2019-02-07T20:50:26.270Z,3.70
2019-02-07T20:52:55.165Z,3.70
2019-02-07T20:55:24.579Z,3.70
2019-02-07T20:57:54.309Z,3.70
2019-02-07T21:00:26.053Z,3.70
2019-02-07T21:02:56.144Z,3.70
2019-02-07T21:05:25.745Z,3.70
2019-02-07T21:07:54.228Z,3.70
2019-02-07T21:10:31.918Z,3.70
2019-02-07T21:13:00.657Z,3.70
2019-02-07T21:15:29.645Z,3.70
2019-02-07T21:17:58.217Z,3.70
2019-02-07T21:20:31.155Z,3.70
2019-02-07T21:23:00.873Z,3.70
2019-02-07T21:25:49.734Z,3.70
2019-02-07T21:28:18.283Z,3.60
2019-02-07T21:30:46.755Z,3.60
2019-02-07T21:33:15.321Z,3.60
2019-02-07T21:35:43.790Z,3.60
2019-02-07T21:38:12.363Z,3.50
2019-02-07T21:40:40.968Z,3.50
2019-02-07T21:43:11.561Z,3.50
2019-02-07T21:45:40.180Z,3.50
2019-02-07T21:48:10.533Z,3.50
2019-02-07T21:50:39.069Z,3.50
2019-02-07T21:53:07.627Z,3.50
2019-02-07T21:55:37.733Z,3.50
2019-02-07T21:58:08.159Z,3.50
2019-02-07T22:00:44.963Z,3.50
2019-02-07T22:03:14.483Z,3.40
2019-02-07T22:05:44.138Z,3.40
2019-02-07T22:08:12.759Z,3.40
2019-02-07T22:10:41.219Z,3.30
2019-02-07T22:13:10.331Z,3.30
2019-02-07T22:15:38.853Z,3.30
2019-02-07T22:18:08.584Z,3.20
2019-02-07T22:20:37.112Z,3.20
2019-02-07T22:23:05.962Z,3.20
2019-02-07T22:25:34.568Z,3.20
2019-02-07T22:28:03.264Z,3.20
2019-02-07T22:30:36.303Z,3.10
2019-02-07T22:33:06.396Z,3.10
2019-02-07T22:35:35.008Z,3.10
2019-02-07T22:38:03.958Z,3.10
2019-02-07T22:40:32.596Z,3.10
2019-02-07T22:43:01.458Z,3.20
2019-02-07T22:45:29.931Z,3.20
2019-02-07T22:47:58.570Z,3.20
2019-02-07T22:50:28.977Z,3.20
2019-02-07T22:52:57.998Z,3.20
2019-02-07T22:55:26.535Z,3.20
2019-02-07T22:57:55.261Z,3.20
2019-02-07T23:00:37.697Z,3.20
2019-02-07T23:03:08.522Z,3.20
2019-02-07T23:05:37.071Z,3.30
2019-02-07T23:08:05.995Z,3.30
2019-02-07T23:10:34.650Z,3.30
2019-02-07T23:13:04.036Z,3.30
2019-02-07T23:15:32.582Z,3.40
2019-02-07T23:18:01.117Z,3.40
2019-02-07T23:20:29.594Z,3.40
2019-02-07T23:23:04.915Z,3.40
2019-02-07T23:25:28.472Z,3.40
2019-02-07T23:27:57.414Z,3.40
2019-02-07T23:30:25.887Z,3.40
2019-02-07T23:32:54.377Z,3.40
2019-02-07T23:35:22.921Z,3.40
2019-02-07T23:37:51.419Z,3.40
2019-02-07T23:40:21.223Z,3.40
2019-02-07T23:42:50.138Z,3.40
2019-02-07T23:45:24.967Z,3.40
2019-02-07T23:47:53.459Z,3.40
2019-02-07T23:50:22.268Z,3.40
2019-02-07T23:52:50.732Z,3.40
2019-02-07T23:55:19.281Z,3.40
2019-02-07T23:57:47.821Z,3.30
